Time;durP1;ratioP1;P1;durP2;ratioP2;P2;SDS_P1;SDS_P2;PMS_P1;PMS_P2;Temp;Humidity;BMP_temperature;BMP_pressure;BME280_temperature;BME280_humidity;BME280_pressure;Samples;Min_cycle;Max_cycle;Signal;HPM_P1;HPM_P2
2024/02/08 00:00:51;;;;;;;5.15;2.20;;;;;;;;;;5109640;28;20067;-40
2024/02/08 00:03:21;;;;;;;3.65;1.75;;;;;;;;;;5111419;28;20042;-39
2024/02/08 00:05:48;;;;;;;5.95;2.03;;;;;;;;;;5107546;28;20401;-40
2024/02/08 00:08:15;;;;;;;8.30;2.05;;;;;;;;;;5095187;28;20569;-40
2024/02/08 00:10:42;;;;;;;8.55;2.78;;;;;;;;;;5096312;28;20036;-41
2024/02/08 00:13:12;;;;;;;10.32;4.10;;;;;;;;;;5097479;28;20034;-40
2024/02/08 00:15:40;;;;;;;6.60;3.13;;;;;;;;;;5100969;28;20055;-40
2024/02/08 00:18:07;;;;;;;6.43;2.72;;;;;;;;;;5106697;28;20031;-40
2024/02/08 00:20:34;;;;;;;8.50;4.68;;;;;;;;;;5090596;28;20028;-41
2024/02/08 00:23:01;;;;;;;7.38;3.63;;;;;;;;;;5090599;28;20032;-41
2024/02/08 00:25:28;;;;;;;7.47;4.55;;;;;;;;;;5090933;28;20024;-40
2024/02/08 00:27:55;;;;;;;8.40;5.20;;;;;;;;;;5091015;28;20024;-40
2024/02/08 00:30:22;;;;;;;10.10;5.03;;;;;;;;;;5106842;28;20697;-40
2024/02/08 00:32:49;;;;;;;8.48;4.90;;;;;;;;;;5114521;28;20038;-40
2024/02/08 00:35:19;;;;;;;7.93;4.35;;;;;;;;;;5109369;28;20030;-40
2024/02/08 00:37:50;;;;;;;7.90;3.63;;;;;;;;;;5111191;28;20061;-40
2024/02/08 00:40:17;;;;;;;6.75;3.15;;;;;;;;;;5097341;27;20020;-40
2024/02/08 00:42:47;;;;;;;10.68;4.22;;;;;;;;;;5098561;28;20031;-40
2024/02/08 00:45:16;;;;;;;9.57;6.55;;;;;;;;;;5102834;28;20449;-40
2024/02/08 00:47:43;;;;;;;8.85;5.40;;;;;;;;;;5093929;28;20111;-40
2024/02/08 00:50:10;;;;;;;10.32;4.22;;;;;;;;;;5102298;28;20035;-39
2024/02/08 00:52:37;;;;;;;9.48;3.38;;;;;;;;;;5114177;27;20024;-39
2024/02/08 00:55:05;;;;;;;11.15;6.22;;;;;;;;;;5114277;28;20040;-39
2024/02/08 00:57:32;;;;;;;10.02;5.88;;;;;;;;;;5112849;28;20496;-40
2024/02/08 00:59:59;;;;;;;8.48;5.70;;;;;;;;;;5097397;28;20583;-39
2024/02/08 01:02:28;;;;;;;7.80;5.60;;;;;;;;;;5096143;28;20032;-40
2024/02/08 01:04:55;;;;;;;9.40;4.30;;;;;;;;;;5102723;28;20035;-41
2024/02/08 01:07:22;;;;;;;7.97;4.50;;;;;;;;;;5114089;27;20031;-40
2024/02/08 01:09:49;;;;;;;7.18;5.15;;;;;;;;;;5113981;27;20107;-40
2024/02/08 01:12:19;;;;;;;9.45;5.40;;;;;;;;;;5098205;28;20028;-40
2024/02/08 01:14:48;;;;;;;6.40;4.18;;;;;;;;;;5101790;28;20066;-40
2024/02/08 01:17:16;;;;;;;9.38;5.25;;;;;;;;;;5111021;28;20081;-40
2024/02/08 01:19:43;;;;;;;6.95;3.67;;;;;;;;;;5100160;28;20490;-40
2024/02/08 01:22:11;;;;;;;5.05;3.17;;;;;;;;;;5104091;28;20028;-42
2024/02/08 01:24:38;;;;;;;6.97;3.20;;;;;;;;;;5093301;28;20058;-41
2024/02/08 01:27:05;;;;;;;8.48;3.20;;;;;;;;;;5103618;28;20031;-40
2024/02/08 01:29:33;;;;;;;5.55;2.45;;;;;;;;;;5108599;28;20109;-39
2024/02/08 01:32:00;;;;;;;4.15;2.40;;;;;;;;;;5107096;28;20109;-41
2024/02/08 01:34:28;;;;;;;6.38;2.63;;;;;;;;;;5103074;28;20455;-40
2024/02/08 01:36:55;;;;;;;4.55;2.50;;;;;;;;;;5100165;28;20412;-40
2024/02/08 01:39:25;;;;;;;5.18;2.40;;;;;;;;;;5102321;28;20119;-39
2024/02/08 01:41:55;;;;;;;7.70;2.63;;;;;;;;;;5099643;28;20035;-39
2024/02/08 01:44:22;;;;;;;4.05;2.53;;;;;;;;;;5098382;28;20027;-39
2024/02/08 01:46:50;;;;;;;6.00;2.70;;;;;;;;;;5106686;28;20020;-39
2024/02/08 01:49:20;;;;;;;4.18;2.90;;;;;;;;;;5092807;28;20047;-40
2024/02/08 01:51:47;;;;;;;5.60;3.30;;;;;;;;;;5102317;28;20032;-39
2024/02/08 01:54:14;;;;;;;7.68;3.17;;;;;;;;;;5096390;28;20043;-40
2024/02/08 01:56:42;;;;;;;6.20;2.97;;;;;;;;;;5102597;28;20050;-41
2024/02/08 01:59:13;;;;;;;3.20;2.28;;;;;;;;;;5103468;28;20034;-40
2024/02/08 02:01:50;;;;;;;4.63;2.30;;;;;;;;;;5092903;28;20044;-40
2024/02/08 02:04:20;;;;;;;6.18;2.10;;;;;;;;;;5092318;28;20047;-41
2024/02/08 02:06:47;;;;;;;2.88;2.05;;;;;;;;;;5092567;28;20084;-42
2024/02/08 02:09:24;;;;;;;3.35;2.10;;;;;;;;;;5107811;28;20092;-40
2024/02/08 02:12:25;;;;;;;4.10;1.98;;;;;;;;;;5112352;28;20028;-40
2024/02/08 02:14:53;;;;;;;5.10;2.10;;;;;;;;;;5055064;27;20056;-39
2024/02/08 02:17:20;;;;;;;9.02;2.60;;;;;;;;;;5094711;28;20111;-39
2024/02/08 02:19:47;;;;;;;3.40;2.20;;;;;;;;;;5098467;28;20038;-41
2024/02/08 02:22:15;;;;;;;4.65;2.60;;;;;;;;;;5099385;28;20393;-41
2024/02/08 02:24:42;;;;;;;7.32;2.60;;;;;;;;;;5098047;28;20034;-41
2024/02/08 02:27:10;;;;;;;4.72;2.40;;;;;;;;;;5095720;28;20040;-41
2024/02/08 02:29:38;;;;;;;4.95;2.60;;;;;;;;;;5105636;28;20023;-41
2024/02/08 02:32:06;;;;;;;8.95;3.22;;;;;;;;;;5111978;28;20024;-40
2024/02/08 03:14:35;;;;;;;15.23;5.28;;;;;;;;;;4995516;27;3417472;-41
2024/02/08 03:17:02;;;;;;;13.77;4.65;;;;;;;;;;5108856;28;20032;-41
2024/02/08 03:19:34;;;;;;;19.08;5.25;;;;;;;;;;5107104;28;20024;-39
2024/02/08 03:22:07;;;;;;;22.35;4.47;;;;;;;;;;5107390;28;20039;-39
2024/02/08 03:24:35;;;;;;;16.42;4.65;;;;;;;;;;5094809;28;20532;-39
2024/02/08 03:27:05;;;;;;;10.90;3.10;;;;;;;;;;5104866;28;20074;-40
2024/02/08 03:29:34;;;;;;;10.55;3.10;;;;;;;;;;5106928;28;20093;-39
2024/02/08 03:32:01;;;;;;;8.98;3.40;;;;;;;;;;5108590;28;20024;-39
2024/02/08 03:34:29;;;;;;;8.70;2.10;;;;;;;;;;5108873;28;20432;-39
2024/02/08 03:37:00;;;;;;;6.72;1.92;;;;;;;;;;5106438;28;20134;-39
2024/02/08 03:39:27;;;;;;;5.43;1.75;;;;;;;;;;5108912;28;20032;-39
2024/02/08 03:42:09;;;;;;;6.35;1.92;;;;;;;;;;5108982;28;20024;-39
2024/02/08 03:44:36;;;;;;;5.68;1.70;;;;;;;;;;5108706;28;20028;-39
2024/02/08 03:47:04;;;;;;;4.90;1.60;;;;;;;;;;5108553;28;20051;-39
2024/02/08 03:49:32;;;;;;;5.10;1.65;;;;;;;;;;5108629;28;20032;-39
2024/02/08 03:51:59;;;;;;;6.60;2.00;;;;;;;;;;5107978;28;20019;-39
2024/02/08 03:54:30;;;;;;;8.32;1.80;;;;;;;;;;5108489;28;20018;-39
2024/02/08 03:57:04;;;;;;;6.03;1.80;;;;;;;;;;5108438;28;20500;-39
2024/02/08 03:59:40;;;;;;;4.93;1.70;;;;;;;;;;5106996;28;20035;-39
2024/02/08 04:02:09;;;;;;;9.15;1.77;;;;;;;;;;5108589;28;20038;-39
2024/02/08 04:04:59;;;;;;;2.88;1.27;;;;;;;;;;5109191;28;20020;-39
2024/02/08 04:54:18;;;;;;;3.65;1.10;;;;;;;;;;5094644;28;20070;-39
2024/02/08 04:56:46;;;;;;;2.53;1.02;;;;;;;;;;5094692;28;20034;-39
2024/02/08 04:59:14;;;;;;;2.45;1.02;;;;;;;;;;5094548;28;20024;-39
2024/02/08 05:01:41;;;;;;;2.00;1.05;;;;;;;;;;5094631;28;20032;-39
2024/02/08 05:04:08;;;;;;;2.13;1.08;;;;;;;;;;5094325;28;20064;-39
2024/02/08 05:06:35;;;;;;;1.95;1.00;;;;;;;;;;5094564;28;20470;-39
2024/02/08 05:09:02;;;;;;;2.75;0.93;;;;;;;;;;5094495;28;20035;-38
2024/02/08 05:11:29;;;;;;;2.78;0.90;;;;;;;;;;5094434;28;20020;-39
2024/02/08 05:14:01;;;;;;;2.25;1.35;;;;;;;;;;5093997;28;20032;-39
2024/02/08 05:16:31;;;;;;;2.88;1.17;;;;;;;;;;5094287;28;20195;-39
2024/02/08 05:18:57;;;;;;;2.72;1.13;;;;;;;;;;5094172;28;20232;-39
2024/02/08 05:21:28;;;;;;;3.03;1.00;;;;;;;;;;5075996;28;20024;-39
2024/02/08 05:23:58;;;;;;;1.48;1.00;;;;;;;;;;5094025;28;20031;-39
2024/02/08 05:26:25;;;;;;;3.25;1.23;;;;;;;;;;5094260;28;20035;-38
2024/02/08 05:28:53;;;;;;;2.53;1.20;;;;;;;;;;5094057;28;20021;-39
2024/02/08 05:31:20;;;;;;;2.03;1.05;;;;;;;;;;5093677;28;20020;-39
2024/02/08 05:33:47;;;;;;;2.95;1.25;;;;;;;;;;5093918;28;20099;-39
2024/02/08 05:36:17;;;;;;;3.97;1.23;;;;;;;;;;5093013;28;20024;-39
2024/02/08 05:38:45;;;;;;;5.57;1.40;;;;;;;;;;5093840;28;20108;-39
2024/02/08 05:41:17;;;;;;;2.83;1.30;;;;;;;;;;5093666;28;20074;-39
2024/02/08 05:43:47;;;;;;;2.75;1.38;;;;;;;;;;5093713;28;20020;-38
2024/02/08 05:47:07;;;;;;;2.55;1.33;;;;;;;;;;5094127;28;20346;-39
2024/02/08 05:49:04;;;;;;;5.43;1.30;;;;;;;;;;5075664;28;20081;-38
2024/02/08 05:51:38;;;;;;;4.90;1.52;;;;;;;;;;5093788;28;20012;-39
2024/02/08 05:54:08;;;;;;;1.98;1.20;;;;;;;;;;5093351;28;20431;-38
2024/02/08 05:56:39;;;;;;;3.00;1.55;;;;;;;;;;5093722;28;20048;-39
2024/02/08 05:59:09;;;;;;;3.35;1.40;;;;;;;;;;5093451;28;20043;-38
2024/02/08 06:01:44;;;;;;;3.15;1.50;;;;;;;;;;5093608;28;20044;-39
2024/02/08 06:04:22;;;;;;;3.38;1.30;;;;;;;;;;5093426;28;20032;-39
2024/02/08 06:07:01;;;;;;;3.45;1.60;;;;;;;;;;5093295;28;20103;-39
2024/02/08 06:09:42;;;;;;;6.10;1.70;;;;;;;;;;5093430;28;20081;-39
2024/02/08 06:12:09;;;;;;;4.47;1.60;;;;;;;;;;5093258;28;20032;-39
2024/02/08 06:14:38;;;;;;;5.18;1.60;;;;;;;;;;5092963;28;20075;-39
2024/02/08 06:17:09;;;;;;;3.35;1.50;;;;;;;;;;5075038;28;20032;-39
2024/02/08 06:19:52;;;;;;;5.65;1.98;;;;;;;;;;5093302;28;20111;-39
2024/02/08 06:22:25;;;;;;;4.53;1.67;;;;;;;;;;5093109;28;20031;-38
2024/02/08 06:25:08;;;;;;;2.15;1.33;;;;;;;;;;5093151;28;20034;-39
2024/02/08 06:27:36;;;;;;;;;;;;;;;;;;5077786;28;20036;-39
2024/02/08 06:30:09;;;;;;;3.97;1.80;;;;;;;;;;5092952;28;20340;-39
2024/02/08 06:32:45;;;;;;;4.35;1.40;;;;;;;;;;5092711;28;20396;-38
2024/02/08 06:35:25;;;;;;;3.47;1.60;;;;;;;;;;5093007;28;20024;-39
2024/02/08 06:38:08;;;;;;;3.10;1.40;;;;;;;;;;5092933;28;20039;-39
2024/02/08 06:40:50;;;;;;;6.60;1.40;;;;;;;;;;5092695;28;20370;-39
2024/02/08 08:11:57;;;;;;;4.40;1.40;;;;;;;;;;5130475;27;20695;-39
2024/02/08 08:19:53;;;;;;;4.53;1.65;;;;;;;;;;5130564;27;20037;-39
2024/02/08 08:25:59;;;;;;;4.38;1.25;;;;;;;;;;5130615;27;20102;-39
2024/02/08 08:27:58;;;;;;;4.68;1.60;;;;;;;;;;5121680;28;20553;-40
2024/02/08 08:30:28;;;;;;;4.43;1.45;;;;;;;;;;5130005;27;20571;-39
2024/02/08 08:38:28;;;;;;;2.70;1.20;;;;;;;;;;5130374;27;20023;-39
2024/02/08 08:41:06;;;;;;;4.03;1.58;;;;;;;;;;5129752;27;20137;-39
2024/02/08 08:43:36;;;;;;;4.03;1.30;;;;;;;;;;5129965;27;20384;-39
2024/02/08 08:46:09;;;;;;;3.47;1.40;;;;;;;;;;5129886;27;20083;-39
2024/02/08 08:48:36;;;;;;;2.22;1.23;;;;;;;;;;5129858;27;20400;-39
2024/02/08 08:51:12;;;;;;;3.63;1.52;;;;;;;;;;5129628;27;20031;-39
2024/02/08 08:53:56;;;;;;;3.90;1.25;;;;;;;;;;5129814;27;20480;-39
2024/02/08 08:56:28;;;;;;;2.15;1.10;;;;;;;;;;5129692;27;20031;-39
2024/02/08 08:58:58;;;;;;;1.45;1.10;;;;;;;;;;5129624;27;20415;-39
2024/02/08 09:01:25;;;;;;;5.05;1.30;;;;;;;;;;5129476;27;20485;-39
2024/02/08 09:04:08;;;;;;;2.35;1.17;;;;;;;;;;5129556;27;20030;-39
2024/02/08 09:06:38;;;;;;;4.03;1.25;;;;;;;;;;5129530;27;20370;-39
2024/02/08 09:11:57;;;;;;;1.95;1.00;;;;;;;;;;5120834;28;20065;-39
2024/02/08 09:14:32;;;;;;;1.50;0.90;;;;;;;;;;5115620;28;20035;-39
2024/02/08 09:16:59;;;;;;;3.20;1.20;;;;;;;;;;5115631;27;20032;-39
2024/02/08 09:19:29;;;;;;;3.53;1.00;;;;;;;;;;5115464;28;20070;-39
2024/02/08 09:22:01;;;;;;;3.10;1.10;;;;;;;;;;5115565;28;20020;-39
2024/02/08 09:24:28;;;;;;;;;;;;;;;;;;5115925;28;20039;-39
2024/02/08 09:27:15;;;;;;;2.47;1.00;;;;;;;;;;5115431;28;20357;-39
2024/02/08 09:29:43;;;;;;;2.70;0.82;;;;;;;;;;5115165;28;20034;-39
2024/02/08 09:35:12;;;;;;;2.75;0.93;;;;;;;;;;5059825;28;20458;-39
2024/02/08 09:37:45;;;;;;;2.42;0.88;;;;;;;;;;5115291;27;20043;-39
2024/02/08 09:42:57;;;;;;;3.60;1.10;;;;;;;;;;5115444;27;20687;-39
2024/02/08 09:48:15;;;;;;;2.90;0.93;;;;;;;;;;5115457;28;20024;-39
2024/02/08 09:50:53;;;;;;;3.85;1.23;;;;;;;;;;5114851;28;20528;-40
2024/02/08 09:53:29;;;;;;;2.13;1.05;;;;;;;;;;5114992;28;20031;-39
2024/02/08 09:56:15;;;;;;;2.35;1.10;;;;;;;;;;5114939;28;20104;-39
2024/02/08 09:58:55;;;;;;;3.05;1.10;;;;;;;;;;5114889;28;20032;-39
2024/02/08 10:01:30;;;;;;;2.38;0.98;;;;;;;;;;5114537;28;20044;-39
2024/02/08 10:04:07;;;;;;;3.92;1.30;;;;;;;;;;5114702;28;20557;-39
2024/02/08 10:07:15;;;;;;;3.65;1.02;;;;;;;;;;5114548;28;20032;-39
2024/02/08 10:09:35;;;;;;;3.35;1.27;;;;;;;;;;5111352;28;20042;-39
2024/02/08 10:12:08;;;;;;;1.88;1.00;;;;;;;;;;5114483;28;20023;-39
2024/02/08 10:14:42;;;;;;;2.47;1.10;;;;;;;;;;5114571;28;20046;-39
2024/02/08 10:17:18;;;;;;;6.35;1.27;;;;;;;;;;5114514;28;20074;-39
2024/02/08 10:22:57;;;;;;;2.65;1.00;;;;;;;;;;5113762;28;20572;-39
2024/02/08 10:28:10;;;;;;;3.60;1.20;;;;;;;;;;5114533;28;20038;-39
2024/02/08 10:30:37;;;;;;;2.25;1.15;;;;;;;;;;5114151;27;20020;-39
2024/02/08 10:33:05;;;;;;;2.63;1.30;;;;;;;;;;5114166;28;20057;-39
2024/02/08 10:35:39;;;;;;;4.28;1.65;;;;;;;;;;5114066;28;20024;-39
2024/02/08 10:38:09;;;;;;;3.08;1.50;;;;;;;;;;5114040;28;20020;-39
2024/02/08 10:40:39;;;;;;;3.92;1.20;;;;;;;;;;5113825;28;20084;-39
2024/02/08 10:43:16;;;;;;;3.33;1.50;;;;;;;;;;5113946;28;20080;-39
2024/02/08 10:45:53;;;;;;;3.42;1.65;;;;;;;;;;5113805;28;20046;-39
2024/02/08 10:48:22;;;;;;;4.25;1.58;;;;;;;;;;5113855;27;20386;-39
2024/02/08 10:50:49;;;;;;;3.45;1.77;;;;;;;;;;5113712;28;20032;-39
2024/02/08 10:53:43;;;;;;;4.05;1.60;;;;;;;;;;5113750;28;20032;-39
2024/02/08 10:56:16;;;;;;;4.10;1.20;;;;;;;;;;5113681;28;20031;-39
2024/02/08 11:04:28;;;;;;;2.25;1.00;;;;;;;;;;5058187;28;20029;-39
2024/02/08 11:07:16;;;;;;;3.33;1.10;;;;;;;;;;5113430;27;20070;-39
2024/02/08 11:09:47;;;;;;;2.45;0.80;;;;;;;;;;5113182;28;20063;-39
2024/02/08 11:12:34;;;;;;;2.40;1.15;;;;;;;;;;5113417;27;20023;-39
2024/02/08 11:15:13;;;;;;;2.13;1.10;;;;;;;;;;5113368;28;20028;-39
2024/02/08 11:17:50;;;;;;;2.13;1.17;;;;;;;;;;5113622;28;20354;-39
2024/02/08 11:20:45;;;;;;;3.63;1.33;;;;;;;;;;5113121;28;20020;-39
2024/02/08 11:23:13;;;;;;;2.72;1.10;;;;;;;;;;5113207;28;20077;-39
2024/02/08 11:25:44;;;;;;;1.65;0.90;;;;;;;;;;5113191;28;20020;-39
2024/02/08 11:28:16;;;;;;;2.97;1.17;;;;;;;;;;5113111;28;20035;-39
2024/02/08 11:30:46;;;;;;;3.87;1.40;;;;;;;;;;5113094;28;20023;-39
2024/02/08 11:33:14;;;;;;;2.78;1.20;;;;;;;;;;5112991;28;20035;-39
2024/02/08 11:36:11;;;;;;;2.33;1.10;;;;;;;;;;5112818;28;20047;-39
2024/02/08 11:38:34;;;;;;;4.03;1.10;;;;;;;;;;5112336;28;20044;-39
2024/02/08 11:41:00;;;;;;;;;;;;;;;;;;5113218;28;20061;-40
2024/02/08 11:43:27;;;;;;;2.88;1.50;;;;;;;;;;5112913;28;20391;-39
2024/02/08 11:45:57;;;;;;;2.67;1.15;;;;;;;;;;5113010;28;20031;-39
2024/02/08 11:48:28;;;;;;;4.25;1.40;;;;;;;;;;5112980;28;20102;-39
2024/02/08 11:50:59;;;;;;;4.78;1.23;;;;;;;;;;5112811;28;20023;-39
2024/02/08 11:53:31;;;;;;;2.13;1.20;;;;;;;;;;5112839;28;20546;-39
2024/02/08 11:56:10;;;;;;;3.92;1.17;;;;;;;;;;5112739;28;20028;-39
2024/02/08 11:58:40;;;;;;;1.83;1.20;;;;;;;;;;5112380;28;20370;-39
2024/02/08 12:01:07;;;;;;;2.28;1.40;;;;;;;;;;5111950;28;20115;-39
2024/02/08 12:03:41;;;;;;;2.58;1.20;;;;;;;;;;5112187;28;20119;-39
2024/02/08 12:06:22;;;;;;;1.80;1.17;;;;;;;;;;5112619;28;20408;-39
2024/02/08 12:09:22;;;;;;;5.60;1.75;;;;;;;;;;5111444;28;20031;-41
2024/02/08 12:11:45;;;;;;;4.10;1.92;;;;;;;;;;5111462;28;20036;-39
2024/02/08 12:14:13;;;;;;;3.35;1.42;;;;;;;;;;5111812;28;20028;-39
2024/02/08 12:16:46;;;;;;;4.50;1.45;;;;;;;;;;5118999;28;20481;-39
2024/02/08 12:19:19;;;;;;;4.70;1.60;;;;;;;;;;5119147;28;20039;-40
2024/02/08 12:21:58;;;;;;;1.95;1.17;;;;;;;;;;5120353;28;20438;-39
2024/02/08 12:24:26;;;;;;;4.18;1.30;;;;;;;;;;5119677;27;20079;-39
2024/02/08 12:26:54;;;;;;;3.97;1.20;;;;;;;;;;5113771;28;20023;-39
2024/02/08 12:29:24;;;;;;;3.45;1.25;;;;;;;;;;5111198;28;20098;-39
2024/02/08 12:31:55;;;;;;;3.47;1.15;;;;;;;;;;5111121;28;20028;-39
2024/02/08 12:34:34;;;;;;;4.18;1.20;;;;;;;;;;5111178;28;20034;-39
2024/02/08 12:37:04;;;;;;;3.83;1.58;;;;;;;;;;5109519;28;20435;-39
2024/02/08 12:39:34;;;;;;;2.50;1.40;;;;;;;;;;5110907;28;20040;-39
2024/02/08 12:42:04;;;;;;;3.35;1.42;;;;;;;;;;5111542;28;20051;-39
2024/02/08 12:44:35;;;;;;;4.50;1.73;;;;;;;;;;5105270;28;20582;-38
2024/02/08 12:47:06;;;;;;;3.47;1.60;;;;;;;;;;5110525;28;20109;-39
2024/02/08 12:49:34;;;;;;;3.43;1.40;;;;;;;;;;5114044;28;20032;-39
2024/02/08 12:52:09;;;;;;;3.40;1.52;;;;;;;;;;5118318;27;20026;-39
2024/02/08 12:54:37;;;;;;;2.72;1.40;;;;;;;;;;5113654;27;20106;-39
2024/02/08 12:57:12;;;;;;;2.42;1.20;;;;;;;;;;5112892;27;20059;-38
2024/02/08 12:59:41;;;;;;;3.00;1.30;;;;;;;;;;5107616;28;20032;-41
2024/02/08 13:02:17;;;;;;;4.13;1.55;;;;;;;;;;5105861;28;20059;-39
2024/02/08 13:04:46;;;;;;;3.15;1.20;;;;;;;;;;5101766;28;20043;-39
2024/02/08 13:07:17;;;;;;;1.42;1.17;;;;;;;;;;5111801;28;20024;-40
2024/02/08 13:09:44;;;;;;;2.25;1.15;;;;;;;;;;5113033;28;20082;-43
2024/02/08 13:12:17;;;;;;;4.00;1.50;;;;;;;;;;5112578;28;20400;-42
2024/02/08 13:14:57;;;;;;;5.40;1.40;;;;;;;;;;5102361;28;20054;-40
2024/02/08 13:17:26;;;;;;;6.75;1.40;;;;;;;;;;5110467;28;20042;-40
2024/02/08 13:19:57;;;;;;;4.80;1.10;;;;;;;;;;5110009;28;20035;-39
2024/02/08 13:22:25;;;;;;;4.32;1.42;;;;;;;;;;5101344;28;20051;-40
2024/02/08 13:24:52;;;;;;;7.65;1.65;;;;;;;;;;5099705;28;20441;-39
2024/02/08 13:27:28;;;;;;;5.13;1.60;;;;;;;;;;5114235;27;20049;-38
2024/02/08 13:29:56;;;;;;;6.15;1.45;;;;;;;;;;5107229;28;20031;-38
2024/02/08 13:32:29;;;;;;;5.15;1.40;;;;;;;;;;5109624;28;20068;-39
2024/02/08 13:34:57;;;;;;;3.20;1.55;;;;;;;;;;5112790;28;20762;-38
2024/02/08 13:37:26;;;;;;;6.28;1.40;;;;;;;;;;5110456;28;20038;-39
2024/02/08 13:40:07;;;;;;;2.88;1.35;;;;;;;;;;5108919;28;20020;-39
2024/02/08 13:42:38;;;;;;;6.43;1.60;;;;;;;;;;5100151;28;20032;-39
2024/02/08 13:45:05;;;;;;;6.65;1.80;;;;;;;;;;5110070;28;20024;-39
2024/02/08 13:47:36;;;;;;;2.00;1.25;;;;;;;;;;5111125;28;20028;-40
2024/02/08 13:50:06;;;;;;;3.58;1.42;;;;;;;;;;5111109;28;20032;-39
2024/02/08 13:52:33;;;;;;;3.95;1.58;;;;;;;;;;5103164;28;20118;-40
2024/02/08 13:54:59;;;;;;;7.85;1.48;;;;;;;;;;5111335;28;20032;-39
2024/02/08 13:57:26;;;;;;;4.47;1.60;;;;;;;;;;5112325;28;20046;-42
2024/02/08 13:59:55;;;;;;;5.57;1.55;;;;;;;;;;5111537;28;20023;-39
2024/02/08 14:02:25;;;;;;;7.65;1.90;;;;;;;;;;5111733;28;20066;-38
2024/02/08 14:04:59;;;;;;;8.27;1.83;;;;;;;;;;5112190;28;20058;-39
2024/02/08 14:07:28;;;;;;;3.08;1.40;;;;;;;;;;5109993;28;20043;-41
2024/02/08 14:09:59;;;;;;;5.28;2.03;;;;;;;;;;5112334;28;20054;-38
2024/02/08 14:12:26;;;;;;;7.03;2.20;;;;;;;;;;5111073;28;20030;-38
2024/02/08 14:14:55;;;;;;;4.68;1.70;;;;;;;;;;5103474;28;20077;-39
2024/02/08 14:17:34;;;;;;;7.00;2.13;;;;;;;;;;5112406;28;20016;-39
2024/02/08 14:20:11;;;;;;;8.05;1.73;;;;;;;;;;5111864;28;20023;-39
2024/02/08 14:22:51;;;;;;;3.85;1.20;;;;;;;;;;5112066;28;20465;-39
2024/02/08 14:25:23;;;;;;;6.07;1.48;;;;;;;;;;5108011;28;20452;-40
2024/02/08 14:27:54;;;;;;;9.60;1.70;;;;;;;;;;5107875;28;20035;-39
2024/02/08 14:30:21;;;;;;;4.60;1.40;;;;;;;;;;5099764;28;20109;-39
2024/02/08 14:32:50;;;;;;;8.43;2.13;;;;;;;;;;5111230;28;20394;-39
2024/02/08 14:35:17;;;;;;;7.60;1.80;;;;;;;;;;5108549;28;20031;-39
2024/02/08 14:37:46;;;;;;;5.50;1.52;;;;;;;;;;5110463;28;20023;-38
2024/02/08 14:40:16;;;;;;;7.30;1.65;;;;;;;;;;5112619;28;20035;-38
2024/02/08 14:42:43;;;;;;;5.07;1.55;;;;;;;;;;5111274;28;20037;-38
2024/02/08 14:45:12;;;;;;;7.15;1.60;;;;;;;;;;5103886;28;20472;-40
2024/02/08 14:47:41;;;;;;;2.65;1.05;;;;;;;;;;5112827;28;20066;-38
2024/02/08 14:50:55;;;;;;;2.60;1.15;;;;;;;;;;5112358;28;20118;-38
2024/02/08 14:53:00;;;;;;;4.18;1.77;;;;;;;;;;5101056;28;20114;-39
2024/02/08 14:55:34;;;;;;;8.82;1.15;;;;;;;;;;5109058;28;20050;-39
2024/02/08 14:58:02;;;;;;;4.72;1.00;;;;;;;;;;5110759;28;20374;-39
2024/02/08 15:03:09;;;;;;;3.65;1.02;;;;;;;;;;5106085;28;20039;-38
2024/02/08 15:05:48;;;;;;;6.40;1.10;;;;;;;;;;5105786;28;20122;-38
2024/02/08 15:11:09;;;;;;;6.50;1.40;;;;;;;;;;5111386;28;20050;-39
2024/02/08 15:13:51;;;;;;;7.65;1.60;;;;;;;;;;5103764;28;20863;-42
2024/02/08 15:16:21;;;;;;;3.15;1.38;;;;;;;;;;5095703;28;20031;-40
2024/02/08 15:18:53;;;;;;;8.02;1.00;;;;;;;;;;5109985;28;20058;-41
2024/02/08 15:21:34;;;;;;;3.45;1.10;;;;;;;;;;5112174;28;20443;-39
2024/02/08 15:26:38;;;;;;;5.93;1.00;;;;;;;;;;5110125;28;20051;-39
2024/02/08 15:29:07;;;;;;;5.20;1.05;;;;;;;;;;5100568;28;20428;-40
2024/02/08 15:31:47;;;;;;;6.85;1.08;;;;;;;;;;5100281;28;20075;-39
2024/02/08 15:36:47;;;;;;;3.05;0.80;;;;;;;;;;5111867;28;20023;-38
2024/02/08 15:39:56;;;;;;;3.92;0.95;;;;;;;;;;5108824;28;20027;-41
2024/02/08 15:42:35;;;;;;;3.30;0.80;;;;;;;;;;5108578;28;20752;-39
2024/02/08 15:45:10;;;;;;;2.90;1.02;;;;;;;;;;5105315;28;20039;-39
2024/02/08 15:48:03;;;;;;;2.70;0.90;;;;;;;;;;5104502;28;20046;-37
2024/02/08 15:50:42;;;;;;;2.03;0.90;;;;;;;;;;5102021;28;20036;-39
2024/02/08 15:53:16;;;;;;;5.00;1.00;;;;;;;;;;5103509;28;20066;-39
2024/02/08 15:55:44;;;;;;;2.20;0.90;;;;;;;;;;5098218;28;20023;-38
2024/02/08 15:58:18;;;;;;;3.08;1.08;;;;;;;;;;5108137;28;20032;-38
2024/02/08 16:03:39;;;;;;;4.32;0.90;;;;;;;;;;5103316;28;20066;-39
2024/02/08 16:06:41;;;;;;;10.07;1.27;;;;;;;;;;5102324;28;20123;-39
2024/02/08 16:08:59;;;;;;;28.10;1.33;;;;;;;;;;5104530;28;20043;-38
2024/02/08 16:11:30;;;;;;;8.98;1.20;;;;;;;;;;5091354;28;20055;-37
2024/02/08 16:14:15;;;;;;;3.55;0.95;;;;;;;;;;5095379;28;20047;-39
2024/02/08 16:17:05;;;;;;;5.53;1.60;;;;;;;;;;5092345;28;20398;-39
2024/02/08 16:19:51;;;;;;;7.30;1.20;;;;;;;;;;5095467;28;20739;-39
2024/02/08 16:22:24;;;;;;;6.25;1.30;;;;;;;;;;5105902;28;20468;-38
2024/02/08 16:24:56;;;;;;;9.82;1.50;;;;;;;;;;5101462;28;20807;-39
2024/02/08 16:27:28;;;;;;;5.15;1.60;;;;;;;;;;5103895;27;20100;-38
2024/02/08 16:30:09;;;;;;;7.25;1.77;;;;;;;;;;5109567;28;20538;-38
2024/02/08 16:32:46;;;;;;;7.05;1.25;;;;;;;;;;5114113;28;20088;-41
2024/02/08 16:38:16;;;;;;;11.70;1.67;;;;;;;;;;5071038;28;20044;-39
2024/02/08 16:40:43;;;;;;;11.45;2.45;;;;;;;;;;5104437;28;20047;-40
2024/02/08 16:43:12;;;;;;;6.78;2.00;;;;;;;;;;5114184;28;20568;-40
2024/02/08 16:45:50;;;;;;;6.30;1.80;;;;;;;;;;5106653;28;20382;-39
2024/02/08 16:48:44;;;;;;;8.73;1.80;;;;;;;;;;5115264;28;20023;-39
2024/02/08 16:51:16;;;;;;;5.28;1.60;;;;;;;;;;5107402;27;20043;-39
2024/02/08 16:53:49;;;;;;;7.95;1.38;;;;;;;;;;5113978;28;20579;-39
2024/02/08 16:56:21;;;;;;;13.05;1.67;;;;;;;;;;5108040;28;20039;-39
2024/02/08 16:58:55;;;;;;;6.87;1.47;;;;;;;;;;5109526;28;20086;-39
2024/02/08 17:01:27;;;;;;;8.88;1.90;;;;;;;;;;5109872;28;20355;-39
2024/02/08 17:04:15;;;;;;;11.50;1.52;;;;;;;;;;5098123;28;20094;-39
2024/02/08 17:09:43;;;;;;;5.25;1.10;;;;;;;;;;5093414;28;20032;-39
2024/02/08 17:12:20;;;;;;;8.25;1.02;;;;;;;;;;5111196;27;20035;-39
2024/02/08 17:14:49;;;;;;;9.45;1.40;;;;;;;;;;5101049;28;20047;-39
2024/02/08 17:17:24;;;;;;;4.63;1.10;;;;;;;;;;5107808;28;20080;-40
2024/02/08 17:19:57;;;;;;;21.77;5.57;;;;;;;;;;5108359;28;20027;-40
2024/02/08 17:23:04;;;;;;;31.50;7.63;;;;;;;;;;5113794;28;20062;-39
2024/02/08 17:28:31;;;;;;;19.00;5.28;;;;;;;;;;5114126;28;20031;-39
2024/02/08 17:33:23;;;;;;;7.40;1.85;;;;;;;;;;5110362;28;20443;-40
2024/02/08 17:35:50;;;;;;;5.63;1.38;;;;;;;;;;5114450;28;20026;-40
2024/02/08 17:38:19;;;;;;;7.00;1.42;;;;;;;;;;5114379;28;20057;-41
2024/02/08 17:40:50;;;;;;;10.68;1.27;;;;;;;;;;5114509;28;20482;-40
2024/02/08 17:43:17;;;;;;;3.50;1.10;;;;;;;;;;5113999;28;20489;-40
2024/02/08 17:45:54;;;;;;;9.52;1.35;;;;;;;;;;5114278;27;20063;-40
2024/02/08 17:48:27;;;;;;;7.00;1.50;;;;;;;;;;5105958;28;20043;-40
2024/02/08 17:50:58;;;;;;;17.80;2.38;;;;;;;;;;5106873;28;20035;-40
2024/02/08 17:53:31;;;;;;;8.40;2.00;;;;;;;;;;5113273;28;20035;-40
2024/02/08 17:56:06;;;;;;;8.15;1.92;;;;;;;;;;5113750;27;20120;-40
2024/02/08 17:58:35;;;;;;;7.63;1.55;;;;;;;;;;5113646;28;20418;-40
2024/02/08 18:01:06;;;;;;;7.65;1.40;;;;;;;;;;5113758;28;20435;-40
2024/02/08 18:03:33;;;;;;;8.98;1.42;;;;;;;;;;5113769;28;20036;-39
2024/02/08 18:06:04;;;;;;;6.30;1.05;;;;;;;;;;5113547;28;20020;-40
2024/02/08 18:08:34;;;;;;;10.23;1.40;;;;;;;;;;5113263;28;20420;-39
2024/02/08 18:11:04;;;;;;;6.60;1.27;;;;;;;;;;5099103;28;20043;-40
2024/02/08 18:13:32;;;;;;;4.28;0.90;;;;;;;;;;5106999;28;20162;-40
2024/02/08 18:16:09;;;;;;;5.13;0.90;;;;;;;;;;5111320;28;20031;-40
2024/02/08 18:18:40;;;;;;;4.53;1.10;;;;;;;;;;5099572;28;20039;-40
2024/02/08 18:21:13;;;;;;;7.85;1.00;;;;;;;;;;5097124;28;20055;-39
2024/02/08 18:23:45;;;;;;;6.03;1.30;;;;;;;;;;5104825;28;20047;-39
2024/02/08 18:26:13;;;;;;;9.45;1.17;;;;;;;;;;5112303;27;20040;-40
2024/02/08 18:28:40;;;;;;;3.45;1.05;;;;;;;;;;5110563;28;20034;-41
2024/02/08 18:31:14;;;;;;;5.82;1.20;;;;;;;;;;5109064;28;20043;-42
2024/02/08 18:33:45;;;;;;;5.93;1.58;;;;;;;;;;5106695;28;20405;-42
2024/02/08 18:36:12;;;;;;;5.00;1.50;;;;;;;;;;5103749;28;20139;-41
2024/02/08 18:38:39;;;;;;;9.32;1.60;;;;;;;;;;5103692;28;20165;-40
2024/02/08 18:41:07;;;;;;;6.82;1.58;;;;;;;;;;5111351;28;20054;-41
2024/02/08 18:43:34;;;;;;;5.82;1.40;;;;;;;;;;5100786;28;20080;-41
2024/02/08 18:46:13;;;;;;;8.93;1.75;;;;;;;;;;5109870;28;20465;-41
2024/02/08 18:48:44;;;;;;;12.38;2.17;;;;;;;;;;5105399;28;20448;-41
2024/02/08 18:51:11;;;;;;;11.13;1.73;;;;;;;;;;5112651;28;20146;-42
2024/02/08 18:53:38;;;;;;;9.38;1.75;;;;;;;;;;5109734;28;20131;-40
2024/02/08 18:56:10;;;;;;;9.57;1.67;;;;;;;;;;5106858;28;20107;-39
2024/02/08 18:58:41;;;;;;;11.23;1.85;;;;;;;;;;5110949;28;20024;-38
2024/02/08 19:01:12;;;;;;;8.90;1.35;;;;;;;;;;5098142;28;20070;-42
2024/02/08 19:03:40;;;;;;;9.45;1.60;;;;;;;;;;5094806;28;20039;-41
2024/02/08 19:06:14;;;;;;;5.63;1.25;;;;;;;;;;5102669;28;20031;-41
2024/02/08 19:08:41;;;;;;;9.07;1.42;;;;;;;;;;5108276;28;20039;-41